Axel Spirit — C6FY5 — position and weather

sailwx.info

Track history (hours):
 
Tides and Currents Weather Stations Pressure Air Temp Water Temp Dewpoint Dewpoint Depression Visibility Wind Speed Wind Dir Waves Ship Positions

Axel Spirit

Last reported at 2017-Oct-02 08:06 UTC. Time now 2017-Nov-24 14:56 UTC.
Position N 14°11' W 060°46'.
Warning: this ship's position is 53 days out of date.

Length 250 m; draft 11.7 m.

Type: Tanker. MMSI: 311645000.

Date/timePositionNaut miles runAvg speedWind from/ knotsBaromVisibWave heightAir tempDewpointWater temp
2017-Oct-02 08:06N 14°11' W 060°46'3 9.3
2017-Oct-02 07:50N 14°12' W 060°48'3 9.2
2017-Oct-02 07:30N 14°14' W 060°51'5 9.3
2017-Oct-02 07:00N 14°15' W 060°55'5 9.5
2017-Oct-02 06:30N 14°16' W 060°60'5 9.5
2017-Oct-02 06:00N 14°17' W 061°05'5 9.7
2017-Oct-02 05:30N 14°19' W 061°10'5 9.8
2017-Oct-02 05:00N 14°21' W 061°14'510.2
2017-Oct-02 04:30N 14°25' W 061°18'910.5
2017-Oct-02 03:36N 14°31' W 061°26'110.6
2017-Oct-02 03:30N 14°31' W 061°26'  
2017-Sep-26 09:15N 25°59' W 079°28'715.1
2017-Sep-26 08:48N 25°52' W 079°29'415.0
2017-Sep-26 08:31N 25°48' W 079°29'714.7
2017-Sep-26 08:00N 25°41' W 079°29'714.3
2017-Sep-26 07:29N 25°33' W 079°29'  
Track history (hours):
 
Tides and Currents Weather Stations Pressure Air Temp Water Temp Dewpoint Dewpoint Depression Visibility Wind Speed Wind Dir Waves Ship Positions

Axel Spirit

Last reported at 2017-Oct-02 08:06 UTC. Time now 2017-Nov-24 14:56 UTC.
Position N 14°11' W 060°46'.
Warning: this ship's position is 53 days out of date.

Length 250 m; draft 11.7 m.

Type: Tanker. MMSI: 311645000.

Date/timePositionNaut miles runAvg speedWind from/ knotsBaromVisibWave heightAir tempDewpointWater temp
2017-Oct-02 08:06N 14°11' W 060°46'3 9.3
2017-Oct-02 07:50N 14°12' W 060°48'3 9.2
2017-Oct-02 07:30N 14°14' W 060°51'5 9.3
2017-Oct-02 07:00N 14°15' W 060°55'5 9.5
2017-Oct-02 06:30N 14°16' W 060°60'5 9.5
2017-Oct-02 06:00N 14°17' W 061°05'5 9.7
2017-Oct-02 05:30N 14°19' W 061°10'5 9.8
2017-Oct-02 05:00N 14°21' W 061°14'510.2
2017-Oct-02 04:30N 14°25' W 061°18'910.5
2017-Oct-02 03:36N 14°31' W 061°26'110.6
2017-Oct-02 03:30N 14°31' W 061°26'  
2017-Sep-26 09:15N 25°59' W 079°28'715.1
2017-Sep-26 08:48N 25°52' W 079°29'415.0
2017-Sep-26 08:31N 25°48' W 079°29'714.7
2017-Sep-26 08:00N 25°41' W 079°29'714.3
2017-Sep-26 07:29N 25°33' W 079°29'  

Dump ship's entire track history